Time;durP1;ratioP1;P1;durP2;ratioP2;P2;SDS_P1;SDS_P2;PMS_P1;PMS_P2;Temp;Humidity;BMP_temperature;BMP_pressure;BME280_temperature;BME280_humidity;BME280_pressure;Samples;Min_cycle;Max_cycle;Signal;HPM_P1;HPM_P2
2022/03/01 00:01:58;;;;;;;0.10;0.10;;;3.70;56.80;;;;;;5042028;28;20626;-61
2022/03/01 00:04:24;;;;;;;0.38;0.38;;;3.60;56.90;;;;;;5041622;28;20024;-61
2022/03/01 00:06:50;;;;;;;0.10;0.10;;;3.60;57.50;;;;;;5048782;28;20030;-63
2022/03/01 00:09:16;;;;;;;0.10;0.10;;;3.60;57.40;;;;;;5055538;28;20040;-62
2022/03/01 00:11:42;;;;;;;0.10;0.10;;;3.50;57.80;;;;;;5037226;28;20044;-62
2022/03/01 00:14:08;;;;;;;0.85;0.85;;;3.60;57.70;;;;;;5037319;28;20021;-62
2022/03/01 00:16:34;;;;;;;1.05;1.05;;;3.50;57.90;;;;;;5044255;28;20021;-62
2022/03/01 00:19:00;;;;;;;5.07;4.75;;;3.60;58.40;;;;;;5039549;28;20129;-61
2022/03/01 00:21:26;;;;;;;0.10;0.10;;;3.50;58.60;;;;;;5032579;28;20107;-61
2022/03/01 00:23:52;;;;;;;1.50;1.40;;;3.40;59.30;;;;;;5039984;28;20021;-60
2022/03/01 00:26:18;;;;;;;0.10;0.10;;;3.40;59.20;;;;;;5046309;28;20025;-61
2022/03/01 00:28:44;;;;;;;0.10;0.10;;;3.40;59.30;;;;;;5034464;28;20382;-62
2022/03/01 00:31:10;;;;;;;0.20;0.20;;;3.30;59.70;;;;;;5038215;28;20112;-61
2022/03/01 00:33:35;;;;;;;0.10;0.10;;;3.30;60.30;;;;;;5030866;28;20116;-62
2022/03/01 00:36:01;;;;;;;3.45;3.20;;;3.30;60.70;;;;;;5046610;28;20040;-61
2022/03/01 00:38:27;;;;;;;3.45;2.22;;;3.30;60.50;;;;;;5048581;28;20521;-62
2022/03/01 00:40:54;;;;;;;0.52;0.52;;;3.30;60.70;;;;;;5044148;28;20021;-63
2022/03/01 00:43:21;;;;;;;0.10;0.10;;;3.20;61.30;;;;;;5048221;28;20033;-62
2022/03/01 00:45:47;;;;;;;0.43;0.43;;;3.20;61.30;;;;;;5047955;28;20522;-62
2022/03/01 00:48:13;;;;;;;2.55;2.35;;;3.10;61.60;;;;;;5045813;28;20486;-62
2022/03/01 00:50:38;;;;;;;0.10;0.10;;;3.00;62.10;;;;;;5042791;28;20025;-62
2022/03/01 00:53:04;;;;;;;0.40;0.40;;;3.10;62.60;;;;;;5047662;28;20402;-62
2022/03/01 00:55:30;;;;;;;0.10;0.10;;;3.00;62.60;;;;;;5044828;28;20142;-62
2022/03/01 00:57:56;;;;;;;0.10;0.10;;;3.00;63.90;;;;;;5045991;28;20129;-62
2022/03/01 01:00:21;;;;;;;0.57;0.57;;;3.00;63.70;;;;;;5045486;28;20021;-61
2022/03/01 01:02:48;;;;;;;0.10;0.10;;;3.00;64.20;;;;;;5048601;28;20053;-63
2022/03/01 01:05:14;;;;;;;0.80;0.80;;;3.00;64.80;;;;;;5043217;28;20017;-62
2022/03/01 01:07:40;;;;;;;0.57;0.57;;;3.00;65.20;;;;;;5044901;28;20443;-62
2022/03/01 01:10:06;;;;;;;0.35;0.35;;;3.00;65.70;;;;;;5054490;28;20072;-62
2022/03/01 01:12:33;;;;;;;0.10;0.10;;;3.00;66.30;;;;;;5042217;28;20036;-61
2022/03/01 01:14:59;;;;;;;0.10;0.10;;;3.00;66.20;;;;;;5048964;28;20032;-62
2022/03/01 01:17:24;;;;;;;0.10;0.10;;;3.00;66.70;;;;;;5042760;28;20029;-62
2022/03/01 01:19:50;;;;;;;0.20;0.20;;;3.00;67.60;;;;;;5042007;28;20032;-62
2022/03/01 01:25:00;;;;;;;3.35;1.95;;;3.00;68.40;;;;;;5045091;28;20091;-62
2022/03/01 01:27:26;;;;;;;0.10;0.10;;;3.00;68.80;;;;;;5045533;28;20033;-62
2022/03/01 01:29:52;;;;;;;0.20;0.20;;;3.00;69.70;;;;;;5047570;28;20478;-62
2022/03/01 01:32:17;;;;;;;0.10;0.10;;;3.00;70.00;;;;;;5041726;28;20039;-62
2022/03/01 01:34:43;;;;;;;0.10;0.10;;;2.90;70.70;;;;;;5044398;28;20537;-62
2022/03/01 01:37:08;;;;;;;0.10;0.10;;;2.90;71.40;;;;;;5045375;28;20083;-61
2022/03/01 01:39:34;;;;;;;0.13;0.13;;;2.80;72.40;;;;;;5040716;28;20049;-61
2022/03/01 01:42:00;;;;;;;0.10;0.10;;;2.80;74.20;;;;;;5042719;28;20036;-61
2022/03/01 01:44:28;;;;;;;1.35;1.33;;;2.80;75.60;;;;;;5046300;28;20037;-61
2022/03/01 01:46:54;;;;;;;0.45;0.43;;;2.70;76.80;;;;;;5045256;28;20056;-61
2022/03/01 01:49:19;;;;;;;0.38;0.38;;;2.70;78.50;;;;;;5036185;28;20525;-61
2022/03/01 01:51:45;;;;;;;0.52;0.52;;;2.70;79.80;;;;;;5042215;28;20025;-63
2022/03/01 01:54:10;;;;;;;2.88;2.72;;;2.60;82.20;;;;;;5040175;28;20483;-62
2022/03/01 01:56:36;;;;;;;0.05;0.05;;;2.70;83.80;;;;;;5042919;28;20475;-61
2022/03/01 01:59:02;;;;;;;0.10;0.10;;;2.70;85.90;;;;;;5047361;28;20487;-61
2022/03/01 02:01:27;;;;;;;0.25;0.25;;;2.70;87.70;;;;;;5032864;28;20026;-61
2022/03/01 02:03:53;;;;;;;0.10;0.10;;;2.70;89.20;;;;;;5032876;28;20167;-61
2022/03/01 02:06:18;;;;;;;0.10;0.10;;;2.60;89.90;;;;;;5040681;28;20735;-61
2022/03/01 02:08:44;;;;;;;1.85;1.05;;;2.60;90.90;;;;;;5048071;28;20058;-61
2022/03/01 02:11:10;;;;;;;0.20;0.20;;;2.50;91.50;;;;;;5047608;28;20021;-61
2022/03/01 02:13:35;;;;;;;0.10;0.10;;;2.50;92.10;;;;;;5044423;28;20029;-61
2022/03/01 02:16:01;;;;;;;0.25;0.25;;;2.50;92.80;;;;;;5051799;28;20102;-61
2022/03/01 02:18:27;;;;;;;0.75;0.75;;;2.50;93.00;;;;;;5033017;28;20387;-63
2022/03/01 02:20:53;;;;;;;0.50;0.50;;;2.50;93.50;;;;;;5033042;28;20056;-62
2022/03/01 02:23:18;;;;;;;0.10;0.10;;;2.50;92.40;;;;;;5033087;28;20108;-62
2022/03/01 02:25:44;;;;;;;0.10;0.10;;;2.40;92.50;;;;;;5039281;28;20103;-62
2022/03/01 02:28:10;;;;;;;1.88;1.50;;;2.30;93.00;;;;;;5041048;28;20057;-62
2022/03/01 02:30:36;;;;;;;0.17;0.17;;;2.30;92.80;;;;;;5020812;28;20087;-62
2022/03/01 02:33:02;;;;;;;0.10;0.10;;;2.30;93.00;;;;;;5044660;28;20433;-62
2022/03/01 02:35:28;;;;;;;0.10;0.10;;;1.70;92.70;;;;;;5047063;28;20537;-62
2022/03/01 02:37:54;;;;;;;0.10;0.10;;;2.30;93.00;;;;;;5052542;28;20124;-62
2022/03/01 02:40:20;;;;;;;0.10;0.10;;;2.30;93.70;;;;;;5052658;28;20032;-62
2022/03/01 02:42:47;;;;;;;0.10;0.10;;;2.30;93.80;;;;;;5051314;28;20071;-62
2022/03/01 02:45:17;;;;;;;0.10;0.10;;;2.20;94.40;;;;;;5034718;28;20040;-62
2022/03/01 02:47:43;;;;;;;0.10;0.10;;;2.30;95.10;;;;;;5014751;28;20091;-62
2022/03/01 02:50:10;;;;;;;0.10;0.10;;;2.20;94.90;;;;;;5045138;28;20052;-62
2022/03/01 02:52:36;;;;;;;0.10;0.10;;;2.20;95.10;;;;;;5044937;28;20053;-62
2022/03/01 02:55:06;;;;;;;0.10;0.10;;;2.20;95.60;;;;;;5052423;28;20064;-62
2022/03/01 02:57:31;;;;;;;0.43;0.43;;;2.10;95.80;;;;;;5031707;28;20125;-62
2022/03/01 02:59:57;;;;;;;0.10;0.10;;;2.10;96.00;;;;;;5042872;28;20442;-62
2022/03/01 03:02:23;;;;;;;3.05;2.75;;;2.10;96.40;;;;;;5035862;28;20021;-62
2022/03/01 03:04:49;;;;;;;0.10;0.10;;;2.10;96.90;;;;;;5033624;28;20032;-62
2022/03/01 03:07:14;;;;;;;0.00;0.00;;;2.00;97.00;;;;;;5051722;28;20100;-62
2022/03/01 03:09:40;;;;;;;0.15;0.15;;;2.00;97.20;;;;;;5062186;23;20116;-67
2022/03/01 03:12:08;;;;;;;0.10;0.10;;;2.00;97.30;;;;;;5050801;28;20021;-67
2022/03/01 03:14:35;;;;;;;0.35;0.35;;;2.00;97.60;;;;;;5051786;28;20071;-69
2022/03/01 03:17:01;;;;;;;0.10;0.10;;;1.90;98.30;;;;;;5050864;28;20033;-67
2022/03/01 03:19:26;;;;;;;0.10;0.10;;;1.90;98.70;;;;;;5039636;28;20033;-65
2022/03/01 03:21:52;;;;;;;0.10;0.10;;;1.90;98.60;;;;;;5032639;28;20479;-66
2022/03/01 03:24:18;;;;;;;0.10;0.10;;;1.90;98.70;;;;;;5014787;28;20045;-66
2022/03/01 03:26:44;;;;;;;0.10;0.10;;;1.90;98.50;;;;;;5031373;28;20017;-67
2022/03/01 03:29:10;;;;;;;0.10;0.10;;;1.90;98.90;;;;;;5013535;28;20029;-66
2022/03/01 03:31:37;;;;;;;0.10;0.10;;;1.90;98.60;;;;;;5051995;28;20021;-66
2022/03/01 03:34:04;;;;;;;0.10;0.10;;;1.90;98.80;;;;;;5036613;28;20033;-66
2022/03/01 03:36:31;;;;;;;0.70;0.70;;;1.90;99.20;;;;;;5007609;28;20056;-65
2022/03/01 03:38:56;;;;;;;0.10;0.10;;;1.80;99.30;;;;;;5032290;28;20029;-65
2022/03/01 03:41:22;;;;;;;0.10;0.10;;;1.80;99.30;;;;;;5032395;28;20048;-66
2022/03/01 03:43:48;;;;;;;0.10;0.10;;;1.80;99.20;;;;;;5025602;28;20021;-67
2022/03/01 03:46:13;;;;;;;0.10;0.10;;;1.80;99.40;;;;;;5038574;28;20018;-66
2022/03/01 03:48:39;;;;;;;0.13;0.13;;;1.70;99.60;;;;;;5038640;28;20112;-66
2022/03/01 03:51:05;;;;;;;0.30;0.30;;;1.80;99.60;;;;;;5030245;28;20029;-66
2022/03/01 03:53:30;;;;;;;0.10;0.10;;;1.70;99.60;;;;;;5032021;28;20092;-66
2022/03/01 03:55:56;;;;;;;0.10;0.10;;;1.70;99.80;;;;;;5031566;28;20049;-66
2022/03/01 03:58:21;;;;;;;0.20;0.20;;;1.70;99.80;;;;;;5018618;28;20475;-66
2022/03/01 04:00:47;;;;;;;0.40;0.40;;;1.70;99.90;;;;;;5014500;28;20040;-66
2022/03/01 04:03:13;;;;;;;0.10;0.10;;;1.70;99.80;;;;;;5011956;28;20033;-66
2022/03/01 04:05:38;;;;;;;0.10;0.10;;;1.70;99.90;;;;;;5011759;28;20036;-65
2022/03/01 04:08:04;;;;;;;1.67;1.58;;;1.70;99.90;;;;;;5026410;28;20475;-66
2022/03/01 04:10:30;;;;;;;0.10;0.10;;;1.60;99.90;;;;;;5024305;28;20038;-67
2022/03/01 04:12:56;;;;;;;5.47;2.53;;;1.60;99.90;;;;;;5014180;28;20079;-66
2022/03/01 04:15:22;;;;;;;0.20;0.20;;;1.60;99.90;;;;;;5031778;28;20057;-66
2022/03/01 04:17:47;;;;;;;1.88;1.75;;;1.50;99.90;;;;;;5028744;28;20022;-67
2022/03/01 04:20:14;;;;;;;0.40;0.40;;;1.50;99.90;;;;;;5033983;28;20549;-67
2022/03/01 04:22:40;;;;;;;0.95;0.95;;;1.50;99.90;;;;;;5051374;28;20025;-65
2022/03/01 04:25:07;;;;;;;0.10;0.10;;;1.50;99.90;;;;;;5015886;28;20030;-66
2022/03/01 04:27:33;;;;;;;1.88;1.75;;;1.50;99.90;;;;;;5030923;28;20029;-68
2022/03/01 04:29:59;;;;;;;0.10;0.10;;;1.50;99.90;;;;;;5031079;28;20029;-65
2022/03/01 04:32:25;;;;;;;0.15;0.15;;;1.40;99.90;;;;;;5031297;28;20021;-66
2022/03/01 04:34:50;;;;;;;0.10;0.10;;;1.40;99.90;;;;;;5013651;28;20488;-66
2022/03/01 04:37:16;;;;;;;0.10;0.10;;;1.40;99.90;;;;;;5011167;28;20112;-66
2022/03/01 04:39:42;;;;;;;0.10;0.10;;;1.40;99.90;;;;;;5011021;28;20026;-67
2022/03/01 04:42:08;;;;;;;0.10;0.10;;;1.40;99.90;;;;;;5026783;28;20034;-65
2022/03/01 04:44:34;;;;;;;0.10;0.10;;;1.40;99.90;;;;;;5027641;28;20028;-66
2022/03/01 04:47:01;;;;;;;0.10;0.10;;;1.40;99.90;;;;;;5031564;28;20541;-66
2022/03/01 04:49:28;;;;;;;0.10;0.10;;;1.30;99.90;;;;;;5026665;28;20029;-66
2022/03/01 04:51:53;;;;;;;0.10;0.10;;;1.30;99.90;;;;;;5022902;28;20017;-67
2022/03/01 04:54:19;;;;;;;0.10;0.10;;;1.30;99.90;;;;;;5017999;28;20045;-65
2022/03/01 04:56:45;;;;;;;3.92;1.75;;;1.20;99.90;;;;;;5027609;28;20018;-66
2022/03/01 04:59:10;;;;;;;0.10;0.10;;;1.30;99.90;;;;;;5030322;28;20033;-68
2022/03/01 05:01:36;;;;;;;0.20;0.20;;;1.20;99.90;;;;;;5019435;28;20443;-65
2022/03/01 05:04:02;;;;;;;9.60;2.90;;;1.10;99.90;;;;;;5010914;28;20026;-66
2022/03/01 05:06:28;;;;;;;0.20;0.20;;;1.10;99.90;;;;;;5010843;28;20112;-65
2022/03/01 05:08:54;;;;;;;0.10;0.10;;;1.10;99.90;;;;;;5010741;28;20476;-66
2022/03/01 05:11:19;;;;;;;0.10;0.10;;;1.20;99.90;;;;;;5025625;28;20037;-65
2022/03/01 05:13:45;;;;;;;1.10;1.10;;;1.20;99.90;;;;;;5030805;28;20036;-66
2022/03/01 05:16:10;;;;;;;0.10;0.10;;;1.20;99.90;;;;;;5030359;28;20479;-66
2022/03/01 05:18:37;;;;;;;0.10;0.10;;;1.20;99.90;;;;;;5028457;28;20069;-66
2022/03/01 05:21:04;;;;;;;0.10;0.10;;;1.10;99.90;;;;;;5030671;28;20017;-66
2022/03/01 05:23:29;;;;;;;0.10;0.10;;;2.00;99.90;;;;;;5030509;28;20033;-66
2022/03/01 05:25:55;;;;;;;0.35;0.35;;;1.20;99.90;;;;;;5025674;28;20083;-65
2022/03/01 05:28:21;;;;;;;4.10;3.83;;;1.20;99.90;;;;;;5010567;28;20112;-66
2022/03/01 05:30:47;;;;;;;0.10;0.10;;;1.10;99.90;;;;;;5039797;28;20033;-67
2022/03/01 05:33:12;;;;;;;0.10;0.10;;;1.10;99.90;;;;;;5033860;28;20538;-67
2022/03/01 05:35:38;;;;;;;0.10;0.10;;;1.10;99.90;;;;;;5026007;28;20037;-65
2022/03/01 05:38:07;;;;;;;0.10;0.10;;;1.10;99.90;;;;;;5030123;28;20407;-65
2022/03/01 05:40:32;;;;;;;0.10;0.10;;;1.10;99.90;;;;;;5038539;28;20013;-66
2022/03/01 05:42:59;;;;;;;3.50;3.08;;;1.20;99.90;;;;;;5027759;28;20379;-67
2022/03/01 05:45:25;;;;;;;0.10;0.10;;;1.20;99.90;;;;;;5029714;28;20036;-66
2022/03/01 05:47:52;;;;;;;0.10;0.10;;;1.20;99.90;;;;;;5030223;28;20172;-66
2022/03/01 05:50:19;;;;;;;0.10;0.10;;;1.10;99.90;;;;;;5029802;28;20036;-66
2022/03/01 05:52:45;;;;;;;0.10;0.10;;;1.20;99.90;;;;;;5018266;28;20045;-66
2022/03/01 05:55:11;;;;;;;0.40;0.40;;;1.20;99.90;;;;;;5014589;28;20025;-67
2022/03/01 05:57:37;;;;;;;0.30;0.30;;;1.20;99.90;;;;;;5029688;28;20471;-67
2022/03/01 06:00:12;;;;;;;0.10;0.10;;;1.10;99.90;;;;;;5030277;28;20028;-66
2022/03/01 06:02:43;;;;;;;0.10;0.10;;;1.10;99.90;;;;;;5014215;28;20026;-67
2022/03/01 06:05:09;;;;;;;0.10;0.10;;;1.10;99.90;;;;;;5010237;28;20029;-68
2022/03/01 06:07:35;;;;;;;0.10;0.10;;;1.10;99.90;;;;;;5029291;28;20036;-65
2022/03/01 06:10:00;;;;;;;0.10;0.10;;;1.10;99.90;;;;;;5025730;28;20042;-67
2022/03/01 06:12:26;;;;;;;1.42;1.42;;;1.10;99.90;;;;;;5016941;28;20042;-66
2022/03/01 06:14:52;;;;;;;2.90;2.70;;;1.10;99.90;;;;;;5010555;28;20022;-68
2022/03/01 06:17:17;;;;;;;0.00;0.00;;;1.10;99.90;;;;;;5013543;28;20029;-66
2022/03/01 06:19:44;;;;;;;0.10;0.10;;;1.10;99.90;;;;;;5022838;28;20132;-67
2022/03/01 06:22:10;;;;;;;0.10;0.10;;;1.10;99.90;;;;;;5030147;28;20121;-65
2022/03/01 06:24:40;;;;;;;0.10;0.10;;;1.10;99.90;;;;;;5011255;28;20626;-65
2022/03/01 06:27:05;;;;;;;0.10;0.10;;;1.10;99.90;;;;;;5029653;28;20438;-67
2022/03/01 06:29:32;;;;;;;0.32;0.30;;;1.00;99.90;;;;;;5020997;28;20022;-65
2022/03/01 06:31:58;;;;;;;0.10;0.10;;;1.00;99.90;;;;;;5032097;28;20025;-65
2022/03/01 06:34:24;;;;;;;0.10;0.10;;;1.00;99.90;;;;;;5036300;28;20033;-69
2022/03/01 06:36:49;;;;;;;0.00;0.00;;;1.00;99.90;;;;;;5044823;28;20112;-67
2022/03/01 06:39:15;;;;;;;9.45;5.28;;;1.10;99.90;;;;;;5033038;28;20128;-67
2022/03/01 06:41:41;;;;;;;0.10;0.10;;;1.00;99.90;;;;;;5033319;28;20045;-67
2022/03/01 06:44:07;;;;;;;0.43;0.43;;;1.00;99.90;;;;;;5033358;28;20087;-68
2022/03/01 06:46:32;;;;;;;0.10;0.10;;;0.90;99.90;;;;;;5023000;28;20062;-69
2022/03/01 06:48:58;;;;;;;0.10;0.10;;;0.60;99.90;;;;;;5031636;28;20068;-67
2022/03/01 06:51:24;;;;;;;0.10;0.10;;;0.60;99.90;;;;;;5033434;28;20415;-66
2022/03/01 06:53:50;;;;;;;1.00;1.00;;;0.80;99.90;;;;;;5033213;28;20033;-68
2022/03/01 06:56:16;;;;;;;0.05;0.05;;;0.80;99.90;;;;;;5022841;28;20037;-66
2022/03/01 06:58:41;;;;;;;1.27;1.27;;;0.90;99.90;;;;;;5034073;28;20076;-68
2022/03/01 07:01:07;;;;;;;0.10;0.10;;;0.90;99.90;;;;;;5032833;28;20521;-67
2022/03/01 07:03:34;;;;;;;0.73;0.73;;;1.00;99.90;;;;;;5032473;28;20505;-69
2022/03/01 07:06:00;;;;;;;0.20;0.20;;;1.00;99.90;;;;;;5025134;28;20026;-67
2022/03/01 07:08:26;;;;;;;0.30;0.30;;;1.00;99.90;;;;;;5032374;28;20048;-67
2022/03/01 07:10:52;;;;;;;0.00;0.00;;;1.00;99.90;;;;;;5032911;28;20029;-68
2022/03/01 07:13:18;;;;;;;0.00;0.00;;;1.10;99.90;;;;;;5022087;28;20040;-69
2022/03/01 07:15:43;;;;;;;5.95;3.40;;;1.10;99.90;;;;;;5031860;28;20379;-68
2022/03/01 07:18:09;;;;;;;0.28;0.28;;;1.10;99.90;;;;;;5032394;28;20025;-68
2022/03/01 07:20:35;;;;;;;0.38;0.38;;;1.20;99.90;;;;;;5032070;28;20021;-67
2022/03/01 07:23:02;;;;;;;0.10;0.10;;;1.20;99.90;;;;;;5036714;28;20133;-68
2022/03/01 07:25:27;;;;;;;0.10;0.10;;;1.20;99.90;;;;;;5036211;28;20028;-67
2022/03/01 07:27:54;;;;;;;0.10;0.10;;;1.30;99.90;;;;;;5032307;28;20033;-72
2022/03/01 07:30:24;;;;;;;0.10;0.10;;;1.30;99.90;;;;;;5037878;28;20101;-68
2022/03/01 07:32:52;;;;;;;0.90;0.90;;;1.40;99.90;;;;;;5027046;28;20033;-68
2022/03/01 07:35:21;;;;;;;0.10;0.10;;;1.40;99.90;;;;;;5031900;28;20057;-67
2022/03/01 07:37:48;;;;;;;0.10;0.10;;;1.40;99.90;;;;;;5032060;28;20065;-67
2022/03/01 07:40:15;;;;;;;1.10;0.90;;;1.30;99.90;;;;;;5017837;28;20022;-67
2022/03/01 07:42:42;;;;;;;0.10;0.10;;;1.40;99.90;;;;;;5011276;28;20029;-67
2022/03/01 07:45:08;;;;;;;0.10;0.10;;;1.60;99.90;;;;;;5023349;28;20018;-69
2022/03/01 07:47:34;;;;;;;0.10;0.10;;;1.50;99.90;;;;;;5039010;28;20494;-68
2022/03/01 07:50:01;;;;;;;0.10;0.10;;;1.60;99.90;;;;;;5034683;28;20026;-67
2022/03/01 07:52:26;;;;;;;0.10;0.10;;;1.60;99.90;;;;;;5031861;28;20106;-67
2022/03/01 07:54:53;;;;;;;0.10;0.10;;;1.70;99.90;;;;;;5045961;28;20482;-69
2022/03/01 07:57:20;;;;;;;0.10;0.10;;;1.70;99.90;;;;;;5027792;28;20288;-69
2022/03/01 07:59:46;;;;;;;6.03;2.83;;;1.80;99.90;;;;;;5031400;28;20029;-69
2022/03/01 08:02:12;;;;;;;0.10;0.10;;;1.90;99.90;;;;;;5030721;28;20049;-68
2022/03/01 08:04:41;;;;;;;0.00;0.00;;;1.90;99.00;;;;;;5030790;28;20442;-71
2022/03/01 08:07:09;;;;;;;0.10;0.10;;;2.00;98.70;;;;;;5026409;28;20081;-67
2022/03/01 08:09:35;;;;;;;2.17;1.55;;;2.00;97.50;;;;;;5031836;28;20110;-69
2022/03/01 08:12:02;;;;;;;0.30;0.30;;;2.00;98.20;;;;;;5025061;28;20030;-69
2022/03/01 08:14:30;;;;;;;0.10;0.10;;;2.10;96.50;;;;;;5031029;28;20510;-69
2022/03/01 08:16:56;;;;;;;0.10;0.10;;;2.10;96.50;;;;;;5010805;28;20021;-69
2022/03/01 08:19:22;;;;;;;0.40;0.40;;;2.30;96.00;;;;;;5023030;28;20167;-67
2022/03/01 08:21:47;;;;;;;0.10;0.10;;;2.30;96.20;;;;;;5031536;28;20487;-71
2022/03/01 08:24:13;;;;;;;0.45;0.45;;;2.30;94.90;;;;;;5028159;28;20037;-69
2022/03/01 08:26:39;;;;;;;8.20;3.30;;;2.40;94.40;;;;;;5032416;28;20026;-70
2022/03/01 08:29:04;;;;;;;0.10;0.10;;;2.40;94.30;;;;;;5042805;28;20025;-71
2022/03/01 08:31:30;;;;;;;0.10;0.10;;;2.40;94.20;;;;;;5033588;28;20029;-70
2022/03/01 08:33:59;;;;;;;0.10;0.10;;;2.50;93.70;;;;;;5029918;28;20112;-69
2022/03/01 08:36:24;;;;;;;0.10;0.10;;;2.60;93.20;;;;;;5025214;28;20033;-69
2022/03/01 08:38:50;;;;;;;0.75;0.75;;;2.70;92.70;;;;;;5030660;28;20037;-69
2022/03/01 08:41:16;;;;;;;4.45;4.15;;;2.70;91.90;;;;;;5026934;28;20101;-69
2022/03/01 08:43:42;;;;;;;0.13;0.13;;;2.80;91.90;;;;;;5027575;28;20029;-69
2022/03/01 08:46:12;;;;;;;0.10;0.10;;;2.80;91.90;;;;;;5024714;28;20594;-72
2022/03/01 08:48:38;;;;;;;0.10;0.10;;;2.90;91.20;;;;;;5030688;28;20491;-70
2022/03/01 08:51:05;;;;;;;7.82;7.22;;;2.90;90.60;;;;;;5022780;28;20480;-69
2022/03/01 08:53:31;;;;;;;0.10;0.10;;;3.10;89.10;;;;;;5026632;28;20030;-71
2022/03/01 08:55:57;;;;;;;0.10;0.10;;;3.10;88.10;;;;;;5031147;28;20030;-71
2022/03/01 08:58:23;;;;;;;0.20;0.20;;;3.10;89.10;;;;;;5026592;28;20117;-71
2022/03/01 09:00:49;;;;;;;0.10;0.10;;;3.20;85.50;;;;;;5030935;28;20454;-69
2022/03/01 09:03:15;;;;;;;0.68;0.68;;;3.30;84.10;;;;;;5026697;28;20017;-70
2022/03/01 09:05:40;;;;;;;2.05;1.95;;;3.30;84.40;;;;;;5030449;28;20025;-69
2022/03/01 09:08:06;;;;;;;0.10;0.10;;;3.40;83.20;;;;;;5025943;28;20043;-73
2022/03/01 09:10:32;;;;;;;0.05;0.05;;;3.50;83.40;;;;;;5031141;28;20041;-69
2022/03/01 09:12:59;;;;;;;0.85;0.85;;;3.60;82.00;;;;;;5031175;28;20033;-68
2022/03/01 09:15:31;;;;;;;0.10;0.10;;;3.60;81.20;;;;;;5028300;28;20116;-70
2022/03/01 09:17:58;;;;;;;0.47;0.47;;;3.60;78.90;;;;;;5014107;28;20026;-69
2022/03/01 09:20:24;;;;;;;0.32;0.32;;;3.60;79.30;;;;;;5023224;28;20132;-71
2022/03/01 09:22:50;;;;;;;0.10;0.10;;;3.60;78.30;;;;;;5029633;28;20029;-69
2022/03/01 09:25:16;;;;;;;0.10;0.10;;;3.70;78.10;;;;;;5030541;28;20977;-70
2022/03/01 09:27:41;;;;;;;0.10;0.10;;;3.80;77.80;;;;;;5028248;28;20030;-69
2022/03/01 09:30:08;;;;;;;2.13;2.03;;;3.90;77.00;;;;;;5030193;28;20042;-70
2022/03/01 09:32:33;;;;;;;0.10;0.10;;;4.00;76.90;;;;;;5029124;28;20037;-70
2022/03/01 09:34:59;;;;;;;0.10;0.10;;;4.10;75.40;;;;;;5028012;28;20037;-72
2022/03/01 09:37:25;;;;;;;0.20;0.20;;;4.00;75.90;;;;;;5029232;28;20034;-70
2022/03/01 09:39:51;;;;;;;0.10;0.10;;;3.90;73.70;;;;;;5022069;28;20018;-69
2022/03/01 09:42:18;;;;;;;0.10;0.10;;;4.00;74.80;;;;;;5033652;28;20586;-69
2022/03/01 09:44:44;;;;;;;0.20;0.20;;;4.00;73.90;;;;;;5042918;28;20025;-69
2022/03/01 09:47:10;;;;;;;0.10;0.10;;;4.10;72.80;;;;;;5018684;28;20036;-72
2022/03/01 09:49:35;;;;;;;0.10;0.10;;;4.30;72.60;;;;;;5029895;28;20411;-69
2022/03/01 09:52:01;;;;;;;0.10;0.10;;;4.30;71.20;;;;;;5012674;28;20044;-73
2022/03/01 09:54:28;;;;;;;0.10;0.10;;;4.40;69.70;;;;;;5024316;28;20021;-69
2022/03/01 09:56:54;;;;;;;0.28;0.28;;;4.50;69.30;;;;;;5028201;28;20024;-69
2022/03/01 09:59:19;;;;;;;0.10;0.10;;;4.60;67.90;;;;;;5021746;28;20025;-70
2022/03/01 10:01:52;;;;;;;0.10;0.10;;;4.60;66.80;;;;;;5020140;28;20044;-69
2022/03/01 10:04:19;;;;;;;0.10;0.10;;;4.60;66.00;;;;;;5029381;28;20033;-70
2022/03/01 10:06:47;;;;;;;0.10;0.10;;;4.60;67.00;;;;;;5013051;28;20372;-69
2022/03/01 10:09:22;;;;;;;1.85;1.75;;;4.60;66.40;;;;;;5024597;28;20484;-71
2022/03/01 10:11:48;;;;;;;0.22;0.22;;;4.60;65.20;;;;;;5026632;28;20057;-71
2022/03/01 10:14:15;;;;;;;0.10;0.10;;;4.70;63.50;;;;;;5041058;28;20021;-73
2022/03/01 10:16:43;;;;;;;0.10;0.10;;;4.80;63.20;;;;;;5035180;28;20029;-68
2022/03/01 10:19:17;;;;;;;0.10;0.10;;;5.00;62.30;;;;;;5029776;28;20047;-70
2022/03/01 10:21:46;;;;;;;0.10;0.10;;;4.90;61.20;;;;;;5039639;28;20051;-71
2022/03/01 10:24:13;;;;;;;0.10;0.10;;;5.00;60.80;;;;;;5035519;28;20057;-68
2022/03/01 10:26:39;;;;;;;2.35;2.15;;;5.10;60.20;;;;;;5031562;28;20075;-69
2022/03/01 10:29:06;;;;;;;0.10;0.10;;;5.30;60.60;;;;;;5031969;28;20026;-70
2022/03/01 10:31:34;;;;;;;2.67;2.45;;;5.20;59.20;;;;;;5033582;28;20112;-71
2022/03/01 10:34:04;;;;;;;0.30;0.30;;;5.30;58.70;;;;;;5032133;28;20029;-71
2022/03/01 10:36:31;;;;;;;3.50;3.20;;;5.40;58.30;;;;;;5026561;28;20491;-69
2022/03/01 10:39:08;;;;;;;0.10;0.10;;;5.40;57.80;;;;;;5031658;28;20138;-71
2022/03/01 10:41:43;;;;;;;0.10;0.10;;;5.40;57.70;;;;;;5034186;28;20026;-70
2022/03/01 10:44:16;;;;;;;0.10;0.10;;;5.60;57.70;;;;;;5034993;28;20025;-70
2022/03/01 10:46:47;;;;;;;;;;;5.70;57.00;;;;;;5021333;28;20054;-70
2022/03/01 10:49:16;;;;;;;0.10;0.10;;;5.80;56.20;;;;;;5029870;28;19917;-68
2022/03/01 10:51:55;;;;;;;0.10;0.10;;;5.80;55.70;;;;;;5033228;28;20029;-70
2022/03/01 10:54:29;;;;;;;0.10;0.10;;;5.80;55.90;;;;;;5015355;28;20395;-69
2022/03/01 10:56:56;;;;;;;0.10;0.10;;;5.80;55.90;;;;;;5026450;28;20054;-69
2022/03/01 10:59:23;;;;;;;0.10;0.10;;;6.00;56.00;;;;;;5032376;28;20025;-69
2022/03/01 11:01:50;;;;;;;0.28;0.28;;;6.10;55.80;;;;;;5032023;28;20020;-70
2022/03/01 11:04:16;;;;;;;0.10;0.10;;;6.10;55.10;;;;;;5027436;28;20053;-69
2022/03/01 11:06:43;;;;;;;3.63;2.75;;;6.20;53.70;;;;;;5025974;28;20030;-70
2022/03/01 11:09:11;;;;;;;0.20;0.20;;;6.20;53.10;;;;;;5013049;28;20069;-72
2022/03/01 11:11:38;;;;;;;0.68;0.68;;;6.20;52.70;;;;;;5020498;28;20060;-70
2022/03/01 11:14:04;;;;;;;0.15;0.15;;;6.20;52.50;;;;;;5032602;28;20052;-70
2022/03/01 11:16:39;;;;;;;0.20;0.20;;;6.20;51.60;;;;;;5021617;28;20505;-73
2022/03/01 11:19:42;;;;;;;0.10;0.10;;;6.10;51.50;;;;;;5036108;28;20056;-70
2022/03/01 11:22:19;;;;;;;0.10;0.10;;;6.20;52.80;;;;;;5032771;28;20072;-70
2022/03/01 11:24:46;;;;;;;0.10;0.10;;;6.40;51.40;;;;;;5029469;28;20029;-71
2022/03/01 11:27:17;;;;;;;1.70;1.52;;;6.40;51.80;;;;;;5030860;28;20034;-66
2022/03/01 11:29:43;;;;;;;1.10;1.10;;;6.60;51.00;;;;;;5030859;28;20112;-68
2022/03/01 11:32:14;;;;;;;0.10;0.10;;;6.60;49.50;;;;;;5029408;28;20495;-71
2022/03/01 11:34:40;;;;;;;0.10;0.10;;;6.70;48.70;;;;;;5020400;28;20487;-70
2022/03/01 11:37:16;;;;;;;0.35;0.35;;;6.90;48.90;;;;;;5036422;28;20101;-73
2022/03/01 11:39:42;;;;;;;0.10;0.10;;;7.00;47.80;;;;;;5034172;28;20025;-70
2022/03/01 11:42:16;;;;;;;0.10;0.10;;;6.60;46.70;;;;;;5035484;28;20018;-74
2022/03/01 11:44:48;;;;;;;0.30;0.30;;;6.60;47.10;;;;;;5033970;28;20487;-71
2022/03/01 11:47:25;;;;;;;0.20;0.20;;;6.80;46.40;;;;;;5034953;28;20032;-70
2022/03/01 11:49:51;;;;;;;0.10;0.10;;;6.90;46.40;;;;;;5011668;28;20053;-69
2022/03/01 11:52:19;;;;;;;4.18;3.75;;;7.00;46.80;;;;;;5036766;28;20049;-70
2022/03/01 11:54:47;;;;;;;0.30;0.30;;;7.20;47.50;;;;;;5041213;28;20017;-68
2022/03/01 11:57:14;;;;;;;0.10;0.10;;;7.40;45.00;;;;;;5032599;28;20022;-72
2022/03/01 11:59:41;;;;;;;0.38;0.38;;;7.50;42.00;;;;;;5032620;28;20130;-74
2022/03/01 12:02:09;;;;;;;0.10;0.10;;;7.90;43.70;;;;;;5020972;28;20060;-68
2022/03/01 12:04:44;;;;;;;0.30;0.30;;;7.70;45.80;;;;;;5035988;28;20025;-69
2022/03/01 12:07:10;;;;;;;0.10;0.10;;;7.90;47.50;;;;;;5164263;22;20884;-74
2022/03/01 12:09:39;;;;;;;0.20;0.20;;;7.90;46.90;;;;;;5030545;28;20498;-74
2022/03/01 12:12:09;;;;;;;0.10;0.10;;;7.70;47.40;;;;;;5012673;28;21091;-69
2022/03/01 12:14:36;;;;;;;0.10;0.10;;;7.50;47.20;;;;;;4994725;28;20117;-70
2022/03/01 12:17:03;;;;;;;0.52;0.52;;;7.70;47.50;;;;;;5009115;28;20066;-70
2022/03/01 12:19:33;;;;;;;0.10;0.10;;;7.90;47.10;;;;;;5020141;28;20510;-70
2022/03/01 12:22:01;;;;;;;0.10;0.10;;;7.70;46.60;;;;;;5008771;28;20029;-71
2022/03/01 12:24:29;;;;;;;0.10;0.10;;;7.80;46.90;;;;;;5021780;28;20056;-70
2022/03/01 12:27:04;;;;;;;0.10;0.10;;;8.00;46.90;;;;;;5002710;28;20113;-69
2022/03/01 12:29:34;;;;;;;0.10;0.10;;;8.10;46.50;;;;;;5011183;28;20052;-70
2022/03/01 12:32:05;;;;;;;3.50;3.25;;;8.10;46.00;;;;;;5012616;28;20029;-71
2022/03/01 12:34:32;;;;;;;0.30;0.30;;;8.10;45.60;;;;;;5010638;28;20025;-70
2022/03/01 12:37:00;;;;;;;0.25;0.25;;;8.00;45.50;;;;;;5004777;28;20030;-69
2022/03/01 12:39:29;;;;;;;0.30;0.30;;;7.90;44.80;;;;;;4992484;28;20419;-69
2022/03/01 12:41:56;;;;;;;1.13;1.08;;;7.80;45.30;;;;;;5020665;28;20280;-70
2022/03/01 12:44:29;;;;;;;0.10;0.10;;;7.80;45.80;;;;;;5016224;28;20037;-70
2022/03/01 12:46:59;;;;;;;0.20;0.20;;;7.70;44.90;;;;;;5016871;28;20026;-69
2022/03/01 12:49:26;;;;;;;0.20;0.20;;;7.80;45.50;;;;;;5011365;28;20539;-71
2022/03/01 12:51:54;;;;;;;0.10;0.10;;;7.90;45.20;;;;;;5021622;28;20103;-69
2022/03/01 12:54:26;;;;;;;0.10;0.10;;;8.10;44.70;;;;;;5008972;28;20480;-69
2022/03/01 12:56:58;;;;;;;0.63;0.63;;;8.40;44.20;;;;;;5010068;28;20022;-71
2022/03/01 12:59:26;;;;;;;0.10;0.10;;;8.50;44.50;;;;;;5020221;28;20044;-69